createdAt,value
2023-01-04T00:01:29.928Z,21.13
2023-01-04T00:03:57.985Z,21.25
2023-01-04T00:06:26.020Z,21.10
2023-01-04T00:08:53.956Z,20.77
2023-01-04T00:11:22.907Z,23.10
2023-01-04T00:13:52.765Z,21.00
2023-01-04T00:16:22.333Z,21.30
2023-01-04T00:18:50.914Z,21.45
2023-01-04T00:21:23.687Z,21.67
2023-01-04T00:23:53.161Z,15.35
2023-01-04T00:26:22.676Z,17.33
2023-01-04T00:28:57.611Z,21.45
2023-01-04T00:31:25.790Z,18.85
2023-01-04T00:33:54.682Z,15.77
2023-01-04T00:36:24.735Z,14.88
2023-01-04T00:39:08.161Z,16.45
2023-01-04T00:44:28.553Z,20.25
2023-01-04T00:46:56.530Z,20.40
2023-01-04T00:49:24.298Z,21.10
2023-01-04T00:51:52.181Z,19.80
2023-01-04T00:54:20.227Z,12.70
2023-01-04T00:56:47.943Z,20.00
2023-01-04T00:59:17.077Z,21.77
2023-01-04T01:01:45.212Z,18.40
2023-01-04T01:04:14.040Z,17.13
2023-01-04T01:06:42.000Z,17.88
2023-01-04T01:09:09.888Z,17.80
2023-01-04T01:11:39.196Z,19.02
2023-01-04T01:14:07.849Z,16.33
2023-01-04T01:16:54.312Z,16.77
2023-01-04T01:19:23.778Z,18.45
2023-01-04T01:21:51.672Z,15.90
2023-01-04T01:24:22.656Z,13.65
2023-01-04T01:26:50.681Z,16.33
2023-01-04T01:29:18.505Z,16.98
2023-01-04T01:31:46.284Z,17.55
2023-01-04T01:34:14.955Z,17.73
2023-01-04T01:36:42.960Z,13.23
2023-01-04T01:39:10.638Z,15.55
2023-01-04T01:41:38.500Z,16.38
2023-01-04T01:44:27.521Z,16.17
2023-01-04T01:46:55.470Z,12.40
2023-01-04T01:49:30.722Z,15.50
2023-01-04T01:52:00.293Z,12.23
2023-01-04T01:54:31.485Z,13.55
2023-01-04T01:57:00.427Z,15.40
2023-01-04T01:59:28.353Z,12.70
2023-01-04T02:01:56.229Z,13.60
2023-01-04T02:04:24.098Z,9.98
2023-01-04T02:06:53.111Z,14.13
2023-01-04T02:09:26.292Z,13.93
2023-01-04T02:11:54.895Z,13.52
2023-01-04T02:14:28.697Z,10.55
2023-01-04T02:17:30.842Z,12.15
2023-01-04T02:20:11.453Z,10.57
2023-01-04T02:22:39.129Z,11.70
2023-01-04T02:25:37.536Z,11.88
2023-01-04T02:28:14.252Z,11.07
2023-01-04T02:30:45.627Z,10.25
2023-01-04T02:33:46.781Z,11.45
2023-01-04T02:36:42.586Z,8.43
2023-01-04T02:39:14.682Z,10.18
2023-01-04T02:42:11.221Z,10.88
2023-01-04T02:44:54.838Z,10.48
2023-01-04T02:47:56.943Z,10.60
2023-01-04T02:50:38.488Z,10.35
2023-01-04T02:53:06.289Z,10.95
2023-01-04T02:56:03.108Z,11.02
2023-01-04T02:58:46.063Z,9.68
2023-01-04T03:01:32.987Z,10.18
2023-01-04T03:04:34.919Z,9.75
2023-01-04T03:09:40.619Z,8.20
2023-01-04T03:12:32.528Z,10.32
2023-01-04T03:15:12.700Z,9.93
2023-01-04T03:17:47.148Z,10.23
2023-01-04T03:20:14.933Z,8.88
2023-01-04T03:23:04.770Z,9.10
2023-01-04T03:25:57.763Z,9.15
2023-01-04T03:28:46.415Z,8.57
2023-01-04T03:31:46.064Z,7.97
2023-01-04T03:34:32.302Z,7.20
2023-01-04T03:37:19.210Z,7.95
2023-01-04T03:40:05.505Z,7.72
2023-01-04T03:42:52.106Z,8.60
2023-01-04T03:46:09.164Z,8.27
2023-01-04T03:49:13.306Z,8.13
2023-01-04T03:51:41.166Z,8.52
2023-01-04T03:54:09.883Z,9.30
2023-01-04T03:56:42.053Z,9.30
2023-01-04T03:59:10.229Z,9.32
2023-01-04T04:01:38.098Z,8.90
2023-01-04T04:04:24.434Z,9.30
2023-01-04T04:07:10.952Z,9.60
2023-01-04T04:09:38.725Z,9.43
2023-01-04T04:12:07.048Z,10.52
2023-01-04T04:14:34.870Z,11.60
2023-01-04T04:17:05.514Z,8.70
2023-01-04T04:19:34.629Z,12.82
2023-01-04T04:22:02.409Z,10.80
2023-01-04T04:24:32.553Z,11.30
2023-01-04T04:27:00.909Z,12.48
2023-01-04T04:29:28.725Z,11.95
2023-01-04T04:31:57.403Z,12.25
2023-01-04T04:34:25.292Z,10.98
2023-01-04T04:36:53.455Z,11.00
2023-01-04T04:39:21.304Z,11.98
2023-01-04T04:41:49.023Z,11.52
2023-01-04T04:44:19.544Z,11.82
2023-01-04T04:46:47.704Z,12.02
2023-01-04T04:49:15.814Z,9.27
2023-01-04T04:51:44.068Z,9.77
2023-01-04T04:54:18.853Z,10.95
2023-01-04T04:56:47.218Z,10.75
2023-01-04T04:59:15.045Z,10.32
2023-01-04T05:01:43.230Z,10.25
2023-01-04T05:04:16.814Z,10.32
2023-01-04T05:06:45.845Z,10.52
2023-01-04T05:09:17.027Z,10.57
2023-01-04T05:12:03.816Z,8.88
2023-01-04T05:14:31.646Z,10.10
2023-01-04T05:16:59.396Z,10.57
2023-01-04T05:19:28.674Z,11.10
2023-01-04T05:21:56.340Z,10.95
2023-01-04T05:24:24.125Z,10.75
2023-01-04T05:26:51.881Z,12.15
2023-01-04T05:29:38.185Z,11.82
2023-01-04T05:32:06.328Z,10.80
2023-01-04T05:34:34.107Z,10.55
2023-01-04T05:37:01.989Z,10.55
2023-01-04T05:39:31.210Z,10.32
2023-01-04T05:42:17.317Z,10.20
2023-01-04T05:44:45.286Z,10.23
2023-01-04T05:47:15.166Z,11.10
2023-01-04T05:49:43.271Z,10.70
2023-01-04T05:52:11.190Z,11.80
2023-01-04T05:54:38.939Z,7.40
2023-01-04T05:57:06.943Z,11.93
2023-01-04T05:59:41.128Z,10.27
2023-01-04T06:02:25.817Z,12.48
2023-01-04T06:04:58.842Z,13.02
2023-01-04T06:07:28.149Z,13.70
2023-01-04T06:09:56.349Z,11.93
2023-01-04T06:12:24.186Z,11.98
2023-01-04T06:14:52.660Z,12.77
2023-01-04T06:17:20.617Z,7.15
2023-01-04T06:19:48.429Z,11.25
2023-01-04T06:22:16.287Z,11.35
2023-01-04T06:24:44.046Z,12.15
2023-01-04T06:27:11.830Z,10.32
2023-01-04T06:29:39.798Z,10.32
2023-01-04T06:32:07.760Z,8.82
2023-01-04T06:34:35.521Z,8.10
2023-01-04T06:37:03.217Z,11.15
2023-01-04T06:39:30.853Z,12.93
2023-01-04T06:42:05.771Z,10.20
2023-01-04T06:44:34.526Z,11.60
2023-01-04T06:47:02.379Z,9.23
2023-01-04T06:49:30.351Z,10.68
2023-01-04T06:51:59.053Z,7.65
2023-01-04T06:54:35.976Z,10.52
2023-01-04T06:57:03.799Z,9.00
2023-01-04T06:59:32.728Z,11.00
2023-01-04T07:02:00.476Z,8.57
2023-01-04T07:04:28.180Z,8.50
2023-01-04T07:06:56.059Z,8.27
2023-01-04T07:09:24.118Z,7.10
2023-01-04T07:11:52.156Z,8.70
2023-01-04T07:14:19.953Z,7.63
2023-01-04T07:16:47.967Z,7.70
2023-01-04T07:19:15.890Z,8.07
2023-01-04T07:21:43.589Z,7.90
2023-01-04T07:24:11.671Z,9.23
2023-01-04T07:26:40.397Z,7.47
2023-01-04T07:29:15.848Z,7.00
2023-01-04T07:31:47.796Z,8.52
2023-01-04T07:34:17.997Z,7.05
2023-01-04T07:36:46.581Z,7.70
2023-01-04T07:39:14.400Z,5.18
2023-01-04T07:41:42.280Z,5.72
2023-01-04T07:44:11.142Z,5.97
2023-01-04T07:46:39.052Z,8.30
2023-01-04T07:49:11.584Z,7.28
2023-01-04T07:51:42.449Z,6.13
2023-01-04T07:54:11.336Z,7.30
2023-01-04T07:56:39.298Z,6.25
2023-01-04T07:59:08.294Z,7.88
2023-01-04T08:01:38.167Z,3.97
2023-01-04T08:04:06.922Z,5.32
2023-01-04T08:06:35.226Z,5.00
2023-01-04T08:09:03.478Z,6.05
2023-01-04T08:11:31.312Z,6.57
2023-01-04T08:13:59.030Z,3.47
2023-01-04T08:16:37.170Z,4.90
2023-01-04T08:19:07.571Z,5.65
2023-01-04T08:21:38.818Z,5.50
2023-01-04T08:26:35.212Z,4.22
2023-01-04T08:29:02.997Z,4.95
2023-01-04T08:31:32.386Z,4.55
2023-01-04T08:34:02.690Z,4.35
2023-01-04T08:36:35.126Z,4.63
2023-01-04T08:39:05.188Z,4.57
2023-01-04T08:42:04.785Z,4.57
2023-01-04T08:44:39.104Z,2.95
2023-01-04T08:47:06.923Z,3.80
2023-01-04T08:49:34.787Z,4.32
2023-01-04T08:52:02.509Z,5.00
2023-01-04T08:54:30.462Z,4.45
2023-01-04T08:56:58.346Z,3.83
2023-01-04T08:59:26.050Z,3.30
2023-01-04T09:01:53.816Z,3.00
2023-01-04T09:04:21.812Z,4.05
2023-01-04T09:06:49.774Z,3.33
2023-01-04T09:09:17.799Z,3.72
2023-01-04T09:11:45.767Z,2.85
2023-01-04T09:14:14.205Z,3.63
2023-01-04T09:16:42.373Z,4.30
2023-01-04T09:19:10.041Z,3.45
2023-01-04T09:21:37.670Z,2.80
2023-01-04T09:24:05.493Z,4.43
2023-01-04T09:26:33.168Z,3.05
2023-01-04T09:29:01.022Z,2.70
2023-01-04T09:31:29.140Z,4.50
2023-01-04T09:34:14.013Z,3.13
2023-01-04T09:36:43.939Z,3.20
2023-01-04T09:39:18.710Z,3.45
2023-01-04T09:42:01.568Z,3.13
2023-01-04T09:47:46.329Z,4.35
2023-01-04T09:50:22.152Z,3.70
2023-01-04T09:52:52.142Z,2.85
2023-01-04T09:55:36.911Z,2.10
2023-01-04T09:58:35.721Z,2.80
2023-01-04T10:01:08.517Z,2.78
2023-01-04T10:03:39.476Z,3.95
2023-01-04T10:06:10.203Z,2.97
2023-01-04T10:08:38.063Z,1.90
2023-01-04T10:11:19.511Z,1.98
2023-01-04T10:14:00.594Z,2.17
2023-01-04T10:22:40.675Z,2.88
2023-01-04T10:25:41.579Z,2.13
2023-01-04T10:28:25.997Z,2.60
2023-01-04T10:30:55.323Z,2.13
2023-01-04T10:33:34.388Z,1.55
2023-01-04T10:36:02.293Z,2.20
2023-01-04T10:38:36.699Z,2.45
2023-01-04T10:41:07.582Z,2.05
2023-01-04T10:44:11.461Z,2.10
2023-01-04T10:46:44.179Z,2.30
2023-01-04T10:49:16.859Z,3.17
2023-01-04T10:51:53.252Z,3.67
2023-01-04T10:54:45.630Z,2.20
2023-01-04T10:57:25.617Z,2.40
2023-01-04T11:00:11.128Z,2.47
2023-01-04T11:02:46.166Z,2.45
2023-01-04T11:05:21.093Z,2.67
2023-01-04T11:07:58.380Z,1.98
2023-01-04T11:10:31.973Z,1.98
2023-01-04T11:13:00.108Z,2.47
2023-01-04T11:15:29.009Z,2.20
2023-01-04T11:17:56.859Z,2.22
2023-01-04T11:20:27.089Z,2.03
2023-01-04T11:23:01.480Z,2.30
2023-01-04T11:25:37.257Z,1.83
2023-01-04T11:28:36.229Z,1.80
2023-01-04T11:31:07.821Z,1.65
2023-01-04T11:33:57.575Z,1.60
2023-01-04T11:36:31.720Z,2.78
2023-01-04T11:39:01.422Z,1.98
2023-01-04T11:41:29.319Z,2.38
2023-01-04T11:43:58.743Z,2.25
2023-01-04T11:46:27.363Z,2.38
2023-01-04T11:48:55.591Z,1.95
2023-01-04T11:51:29.965Z,2.53
2023-01-04T11:54:06.603Z,2.55
2023-01-04T11:56:36.112Z,2.92
2023-01-04T11:59:06.662Z,2.28
2023-01-04T12:01:36.801Z,4.20
2023-01-04T12:04:09.887Z,2.35
2023-01-04T12:06:52.629Z,2.53
2023-01-04T12:09:21.172Z,2.03
2023-01-04T12:11:54.019Z,2.25
2023-01-04T12:14:25.958Z,2.25
2023-01-04T12:17:16.941Z,2.33
2023-01-04T12:19:44.967Z,2.13
2023-01-04T12:22:26.825Z,1.13
2023-01-04T12:25:01.056Z,1.58
2023-01-04T12:27:29.980Z,0.98
2023-01-04T12:29:59.607Z,0.93
2023-01-04T12:32:30.800Z,1.07
2023-01-04T12:35:00.615Z,1.23
2023-01-04T12:37:48.658Z,1.30
2023-01-04T12:40:53.698Z,1.48
2023-01-04T12:43:28.946Z,1.63
2023-01-04T12:46:49.443Z,1.35
2023-01-04T12:49:26.335Z,1.70
2023-01-04T12:54:58.869Z,1.60
2023-01-04T12:57:36.742Z,1.25
2023-01-04T13:00:05.131Z,1.30
2023-01-04T13:02:52.348Z,1.30
2023-01-04T13:05:55.617Z,1.15
2023-01-04T13:08:12.823Z,1.48
2023-01-04T13:10:42.470Z,1.70
2023-01-04T13:13:38.876Z,1.20
2023-01-04T13:16:10.545Z,1.13
2023-01-04T13:18:47.659Z,1.60
2023-01-04T13:21:19.003Z,1.63
2023-01-04T13:23:57.609Z,1.70
2023-01-04T13:26:31.822Z,1.35
2023-01-04T13:29:22.352Z,1.60
2023-01-04T13:32:00.924Z,1.70
2023-01-04T13:34:38.094Z,2.40
2023-01-04T13:37:14.384Z,1.35
2023-01-04T13:40:01.935Z,1.67
2023-01-04T13:42:31.976Z,1.65
2023-01-04T13:45:19.712Z,2.33
2023-01-04T13:47:56.037Z,1.60
2023-01-04T13:50:34.044Z,4.35
2023-01-04T13:53:07.689Z,4.10
2023-01-04T13:55:37.816Z,2.00
2023-01-04T13:58:20.021Z,1.65
2023-01-04T14:01:13.043Z,2.30
2023-01-04T14:03:42.658Z,2.22
2023-01-04T14:06:11.616Z,1.85
2023-01-04T14:08:53.407Z,3.40
2023-01-04T14:14:51.894Z,2.13
2023-01-04T14:17:26.862Z,1.98
2023-01-04T14:19:55.643Z,1.08
2023-01-04T14:22:28.214Z,1.27
2023-01-04T14:25:08.937Z,1.90
2023-01-04T14:27:41.041Z,1.75
2023-01-04T14:30:17.854Z,1.38
2023-01-04T14:32:59.222Z,1.95
2023-01-04T14:37:55.051Z,1.65
2023-01-04T14:40:27.919Z,2.38
2023-01-04T14:42:55.679Z,2.33
2023-01-04T14:45:23.614Z,2.10
2023-01-04T14:47:51.382Z,3.05
2023-01-04T14:50:19.182Z,2.70
2023-01-04T14:52:51.880Z,3.33
2023-01-04T14:55:20.190Z,2.53
2023-01-04T14:57:48.188Z,3.08
2023-01-04T15:00:19.535Z,2.05
2023-01-04T15:02:52.248Z,2.55
2023-01-04T15:05:20.810Z,2.70
2023-01-04T15:07:48.961Z,2.35
2023-01-04T15:10:25.147Z,2.67
2023-01-04T15:12:53.774Z,2.45
2023-01-04T15:15:22.563Z,2.83
2023-01-04T15:17:50.890Z,3.20
2023-01-04T15:20:19.492Z,2.88
2023-01-04T15:22:47.521Z,3.33
2023-01-04T15:25:15.322Z,3.00
2023-01-04T15:27:43.334Z,2.78
2023-01-04T15:30:12.502Z,4.38
2023-01-04T15:32:41.859Z,3.77
2023-01-04T15:35:10.023Z,4.85
2023-01-04T15:37:37.986Z,4.15
2023-01-04T15:40:07.646Z,4.53
2023-01-04T15:42:53.980Z,4.25
2023-01-04T15:45:24.083Z,4.43
2023-01-04T15:47:52.039Z,5.00
2023-01-04T15:50:20.621Z,3.92
2023-01-04T15:52:48.371Z,4.13
2023-01-04T15:55:16.211Z,4.82
2023-01-04T15:57:44.513Z,3.67
2023-01-04T16:00:12.987Z,5.35
2023-01-04T16:02:41.797Z,4.57
2023-01-04T16:05:10.860Z,3.90
2023-01-04T16:07:39.598Z,3.53
2023-01-04T16:10:07.942Z,3.78
2023-01-04T16:12:41.801Z,2.90
2023-01-04T16:15:17.188Z,4.47
2023-01-04T16:17:45.869Z,3.60
2023-01-04T16:20:14.990Z,3.38
2023-01-04T16:22:43.224Z,3.97
2023-01-04T16:25:12.973Z,4.20
2023-01-04T16:27:41.434Z,3.65
2023-01-04T16:30:11.677Z,3.10
2023-01-04T16:35:09.264Z,2.83
2023-01-04T16:37:37.076Z,3.45
2023-01-04T16:40:09.984Z,2.75
2023-01-04T16:42:38.256Z,2.22
2023-01-04T16:45:06.668Z,3.83
2023-01-04T16:47:41.803Z,3.72
2023-01-04T16:50:10.644Z,3.45
2023-01-04T16:52:40.337Z,3.15
2023-01-04T16:55:08.950Z,3.65
2023-01-04T16:57:36.835Z,2.78
2023-01-04T17:00:05.264Z,2.25
2023-01-04T17:02:33.414Z,3.03
2023-01-04T17:05:01.440Z,3.60
2023-01-04T17:07:33.123Z,2.50
2023-01-04T17:10:01.719Z,3.00
2023-01-04T17:12:46.832Z,3.05
2023-01-04T17:15:41.839Z,3.03
2023-01-04T17:18:04.121Z,3.15
2023-01-04T17:20:32.100Z,2.50
2023-01-04T17:23:00.260Z,3.47
2023-01-04T17:25:31.072Z,2.92
2023-01-04T17:27:59.071Z,3.70
2023-01-04T17:30:27.009Z,3.70
2023-01-04T17:32:55.461Z,3.50
2023-01-04T17:35:23.499Z,4.13
2023-01-04T17:37:54.015Z,3.17
2023-01-04T17:40:25.312Z,3.75
2023-01-04T17:42:53.194Z,3.47
2023-01-04T17:45:22.004Z,2.90
2023-01-04T17:47:50.307Z,3.75
2023-01-04T17:50:19.646Z,3.70
2023-01-04T17:52:53.584Z,3.95
2023-01-04T17:55:22.036Z,3.75
2023-01-04T17:57:52.671Z,3.55
2023-01-04T18:00:21.909Z,3.88
2023-01-04T18:02:52.991Z,3.88
2023-01-04T18:05:21.115Z,3.78
2023-01-04T18:07:49.126Z,4.03
2023-01-04T18:10:27.171Z,4.30
2023-01-04T18:13:05.174Z,3.75
2023-01-04T18:15:36.264Z,2.85
2023-01-04T18:18:29.068Z,3.90
2023-01-04T18:20:59.776Z,4.63
2023-01-04T18:23:29.752Z,4.35
2023-01-04T18:26:02.406Z,4.35
2023-01-04T18:28:30.908Z,3.97
2023-01-04T18:30:58.790Z,4.55
2023-01-04T18:33:27.001Z,4.43
2023-01-04T18:35:55.188Z,5.03
2023-01-04T18:38:23.331Z,5.30
2023-01-04T18:40:51.333Z,5.10
2023-01-04T18:43:19.538Z,5.45
2023-01-04T18:45:47.625Z,5.18
2023-01-04T18:48:16.450Z,5.63
2023-01-04T18:50:44.538Z,5.72
2023-01-04T18:53:14.018Z,6.63
2023-01-04T18:55:42.505Z,4.93
2023-01-04T18:58:10.909Z,5.63
2023-01-04T19:00:40.195Z,5.78
2023-01-04T19:03:13.373Z,4.68
2023-01-04T19:05:45.321Z,4.70
2023-01-04T19:08:13.901Z,4.68
2023-01-04T19:10:43.851Z,4.43
2023-01-04T19:13:12.876Z,5.30
2023-01-04T19:15:47.574Z,4.72
2023-01-04T19:18:30.797Z,6.05
2023-01-04T19:21:01.261Z,5.97
2023-01-04T19:23:29.836Z,6.15
2023-01-04T19:25:58.447Z,7.68
2023-01-04T19:28:26.823Z,4.53
2023-01-04T19:30:55.106Z,21.90
2023-01-04T19:33:25.196Z,14.80
2023-01-04T19:35:56.383Z,9.30
2023-01-04T19:38:24.918Z,6.53
2023-01-04T19:41:00.099Z,5.97
2023-01-04T19:43:28.633Z,5.57
2023-01-04T19:45:57.088Z,5.45
2023-01-04T19:48:31.676Z,5.88
2023-01-04T19:51:15.138Z,5.85
2023-01-04T19:53:44.490Z,5.88
2023-01-04T19:56:13.192Z,6.60
2023-01-04T19:58:41.447Z,6.10
2023-01-04T20:01:13.991Z,6.47
2023-01-04T20:03:43.368Z,6.70
2023-01-04T20:06:11.982Z,6.97
2023-01-04T20:08:40.502Z,7.07
2023-01-04T20:11:09.267Z,6.72
2023-01-04T20:13:38.352Z,9.15
2023-01-04T20:16:07.070Z,10.10
2023-01-04T20:18:36.338Z,7.18
2023-01-04T20:21:11.376Z,7.25
2023-01-04T20:23:39.443Z,7.15
2023-01-04T20:26:11.435Z,7.60
2023-01-04T20:28:39.734Z,6.97
2023-01-04T20:31:09.044Z,10.07
2023-01-04T20:33:38.087Z,9.95
2023-01-04T20:36:13.899Z,9.05
2023-01-04T20:38:42.735Z,9.55
2023-01-04T20:41:16.418Z,10.02
2023-01-04T20:43:44.990Z,7.35
2023-01-04T20:46:17.752Z,7.72
2023-01-04T20:48:45.982Z,7.30
2023-01-04T20:51:18.633Z,6.95
2023-01-04T20:53:46.540Z,6.50
2023-01-04T20:56:19.291Z,7.90
2023-01-04T20:58:47.413Z,8.20
2023-01-04T21:01:15.524Z,9.13
2023-01-04T21:03:43.412Z,8.23
2023-01-04T21:06:13.169Z,7.22
2023-01-04T21:08:42.551Z,8.60
2023-01-04T21:11:10.538Z,7.25
2023-01-04T21:13:38.281Z,6.95
2023-01-04T21:16:06.781Z,16.98
2023-01-04T21:18:34.641Z,9.43
2023-01-04T21:21:10.079Z,8.95
2023-01-04T21:23:38.522Z,7.55
2023-01-04T21:26:07.393Z,8.30
2023-01-04T21:28:35.152Z,8.35
2023-01-04T21:31:02.965Z,8.27
2023-01-04T21:33:30.765Z,7.93
2023-01-04T21:35:58.364Z,7.75
2023-01-04T21:38:27.873Z,7.28
2023-01-04T21:40:55.451Z,7.60
2023-01-04T21:43:23.074Z,7.47
2023-01-04T21:45:50.651Z,8.20
2023-01-04T21:48:18.237Z,8.52
2023-01-04T21:50:45.882Z,9.35
2023-01-04T21:53:13.476Z,9.90
2023-01-04T21:55:41.218Z,10.90
2023-01-04T21:58:08.902Z,9.85
2023-01-04T22:00:36.517Z,10.20
2023-01-04T22:03:04.142Z,10.02
2023-01-04T22:05:32.109Z,11.10
2023-01-04T22:07:59.814Z,10.60
2023-01-04T22:10:27.392Z,10.02
2023-01-04T22:12:58.130Z,10.73
2023-01-04T22:15:25.706Z,9.48
2023-01-04T22:17:53.306Z,10.77
2023-01-04T22:20:21.012Z,10.40
2023-01-04T22:22:48.700Z,12.38
2023-01-04T22:25:17.850Z,16.55
2023-01-04T22:27:49.622Z,17.40
2023-01-04T22:30:17.392Z,16.50
2023-01-04T22:32:45.067Z,18.25
2023-01-04T22:35:12.842Z,18.25
2023-01-04T22:37:40.393Z,17.75
2023-01-04T22:40:08.829Z,18.02
2023-01-04T22:42:36.722Z,22.67
2023-01-04T22:45:11.029Z,20.52
2023-01-04T22:47:40.765Z,20.80
2023-01-04T22:50:08.558Z,18.35
2023-01-04T22:52:36.201Z,20.42
2023-01-04T22:55:04.230Z,20.45
2023-01-04T22:57:32.043Z,22.58
2023-01-04T22:59:59.627Z,20.80
2023-01-04T23:02:27.288Z,22.38
2023-01-04T23:04:54.898Z,19.83
2023-01-04T23:07:22.470Z,20.73
2023-01-04T23:09:50.057Z,21.42
2023-01-04T23:12:17.932Z,19.17
2023-01-04T23:14:45.622Z,20.33
2023-01-04T23:17:13.207Z,21.13
2023-01-04T23:20:00.867Z,21.13
2023-01-04T23:22:28.717Z,19.33
2023-01-04T23:24:56.326Z,19.02
2023-01-04T23:27:23.883Z,20.55
2023-01-04T23:29:51.534Z,20.02
2023-01-04T23:32:19.684Z,18.70
2023-01-04T23:34:50.721Z,18.08
2023-01-04T23:37:18.727Z,18.70
2023-01-04T23:40:42.989Z,19.65
2023-01-04T23:43:25.450Z,18.23
2023-01-04T23:45:53.009Z,18.38
2023-01-04T23:48:20.978Z,17.88
2023-01-04T23:50:56.361Z,18.70
2023-01-04T23:53:24.405Z,19.15
2023-01-04T23:55:58.839Z,18.88
2023-01-04T23:58:31.415Z,18.77
